Time;durP1;ratioP1;P1;durP2;ratioP2;P2;SDS_P1;SDS_P2;PMS_P1;PMS_P2;Temp;Humidity;BMP_temperature;BMP_pressure;BME280_temperature;BME280_humidity;BME280_pressure;Samples;Min_cycle;Max_cycle;Signal;HPM_P1;HPM_P2
2024/02/08 00:01:11;;;;;;;0.40;0.40;;;;;;;;;;5004991;28;20483;-61
2024/02/08 00:03:38;;;;;;;0.35;0.35;;;;;;;;;;5006278;28;20053;-59
2024/02/08 00:06:04;;;;;;;0.40;0.40;;;;;;;;;;5006028;28;20054;-59
2024/02/08 00:08:31;;;;;;;0.40;0.40;;;;;;;;;;5020755;28;20065;-59
2024/02/08 00:10:58;;;;;;;0.40;0.40;;;;;;;;;;5004224;28;20068;-60
2024/02/08 00:13:24;;;;;;;0.40;0.40;;;;;;;;;;5005511;28;20116;-59
2024/02/08 00:15:51;;;;;;;0.40;0.40;;;;;;;;;;5005578;28;20090;-59
2024/02/08 00:18:18;;;;;;;0.40;0.40;;;;;;;;;;5005476;28;20072;-59
2024/02/08 00:20:45;;;;;;;0.30;0.30;;;;;;;;;;5005197;28;20057;-59
2024/02/08 00:23:14;;;;;;;0.40;0.40;;;;;;;;;;5004208;28;20157;-60
2024/02/08 00:25:40;;;;;;;0.40;0.40;;;;;;;;;;5019914;28;20041;-61
2024/02/08 00:28:11;;;;;;;0.40;0.40;;;;;;;;;;5005471;28;20054;-59
2024/02/08 00:30:40;;;;;;;0.40;0.40;;;;;;;;;;5005295;28;20054;-61
2024/02/08 00:33:07;;;;;;;0.38;0.38;;;;;;;;;;5004857;28;20618;-61
2024/02/08 00:35:33;;;;;;;0.30;0.30;;;;;;;;;;5004918;28;20107;-61
2024/02/08 00:38:00;;;;;;;0.30;0.30;;;;;;;;;;5005563;28;20081;-61
2024/02/08 00:40:27;;;;;;;0.30;0.30;;;;;;;;;;5005036;28;20069;-61
2024/02/08 00:42:54;;;;;;;0.30;0.30;;;;;;;;;;5005676;28;20651;-61
2024/02/08 00:45:24;;;;;;;0.40;0.40;;;;;;;;;;5005035;28;20470;-61
2024/02/08 00:47:54;;;;;;;0.40;0.40;;;;;;;;;;5005017;28;20523;-61
2024/02/08 00:50:21;;;;;;;0.38;0.38;;;;;;;;;;5004851;28;20056;-61
2024/02/08 00:52:48;;;;;;;0.40;0.40;;;;;;;;;;5004747;28;20532;-60
2024/02/08 00:55:16;;;;;;;0.30;0.30;;;;;;;;;;5004040;28;20100;-61
2024/02/08 00:57:42;;;;;;;0.30;0.30;;;;;;;;;;5004599;28;20888;-60
2024/02/08 01:00:10;;;;;;;0.40;0.40;;;;;;;;;;5004967;28;20054;-61
2024/02/08 01:02:36;;;;;;;0.40;0.40;;;;;;;;;;5009881;28;20053;-60
2024/02/08 01:05:03;;;;;;;0.30;0.30;;;;;;;;;;5004708;28;20062;-59
2024/02/08 01:07:32;;;;;;;0.40;0.40;;;;;;;;;;5004610;28;20440;-59
2024/02/08 01:09:59;;;;;;;0.40;0.40;;;;;;;;;;5005024;28;20061;-61
2024/02/08 01:12:26;;;;;;;0.30;0.30;;;;;;;;;;5004374;28;20476;-61
2024/02/08 01:14:53;;;;;;;0.35;0.35;;;;;;;;;;5019565;28;20198;-60
2024/02/08 01:17:19;;;;;;;0.30;0.30;;;;;;;;;;5004590;28;20472;-61
2024/02/08 01:19:50;;;;;;;0.30;0.30;;;;;;;;;;5003095;28;20065;-61
2024/02/08 01:22:19;;;;;;;0.30;0.30;;;;;;;;;;5004523;28;20866;-59
2024/02/08 01:24:49;;;;;;;0.30;0.30;;;;;;;;;;5003081;28;20063;-59
2024/02/08 01:27:20;;;;;;;0.30;0.30;;;;;;;;;;5004793;28;20096;-59
2024/02/08 01:29:49;;;;;;;0.30;0.30;;;;;;;;;;5004952;28;20493;-62
2024/02/08 01:32:16;;;;;;;0.30;0.30;;;;;;;;;;4989358;28;20543;-59
2024/02/08 01:34:45;;;;;;;0.30;0.30;;;;;;;;;;5004325;28;20053;-62
2024/02/08 01:37:13;;;;;;;0.60;0.60;;;;;;;;;;5004278;28;20046;-61
2024/02/08 01:39:40;;;;;;;0.50;0.50;;;;;;;;;;5003102;28;20722;-58
2024/02/08 01:42:10;;;;;;;0.50;0.50;;;;;;;;;;5003165;28;20057;-59
2024/02/08 01:44:37;;;;;;;0.50;0.50;;;;;;;;;;5004016;28;20591;-59
2024/02/08 01:47:03;;;;;;;0.60;0.60;;;;;;;;;;5003859;28;20539;-60
2024/02/08 01:49:31;;;;;;;0.60;0.60;;;;;;;;;;5004373;28;20054;-61
2024/02/08 01:52:03;;;;;;;0.50;0.50;;;;;;;;;;5004130;28;20054;-62
2024/02/08 01:54:30;;;;;;;0.50;0.50;;;;;;;;;;5004295;28;20560;-61
2024/02/08 01:57:03;;;;;;;0.50;0.50;;;;;;;;;;5018952;28;20089;-61
2024/02/08 01:59:31;;;;;;;0.57;0.57;;;;;;;;;;5004581;28;20100;-60
2024/02/08 02:02:01;;;;;;;0.50;0.50;;;;;;;;;;5003829;28;20053;-61
2024/02/08 02:04:30;;;;;;;0.50;0.50;;;;;;;;;;5004229;28;20452;-59
2024/02/08 02:07:00;;;;;;;0.50;0.50;;;;;;;;;;5004948;28;20087;-58
2024/02/08 02:09:30;;;;;;;0.57;0.57;;;;;;;;;;5008420;28;20324;-59
2024/02/08 02:12:02;;;;;;;0.50;0.50;;;;;;;;;;5007812;28;20152;-60
2024/02/08 02:14:30;;;;;;;0.55;0.55;;;;;;;;;;5007919;28;20073;-62
2024/02/08 02:17:10;;;;;;;0.60;0.60;;;;;;;;;;5008182;28;20058;-60
2024/02/08 02:19:37;;;;;;;0.50;0.50;;;;;;;;;;5008137;28;20512;-61
2024/02/08 02:22:07;;;;;;;0.60;0.60;;;;;;;;;;5008078;28;20053;-61
2024/02/08 02:24:36;;;;;;;0.60;0.60;;;;;;;;;;5008097;28;20071;-60
2024/02/08 02:27:06;;;;;;;0.60;0.60;;;;;;;;;;5007868;28;20081;-60
2024/02/08 02:29:34;;;;;;;0.60;0.60;;;;;;;;;;5008003;28;20461;-60
2024/02/08 02:32:00;;;;;;;0.50;0.50;;;;;;;;;;5007500;28;20053;-62
2024/02/08 02:34:30;;;;;;;0.45;0.45;;;;;;;;;;5007093;28;20054;-58
2024/02/08 02:37:01;;;;;;;0.50;0.50;;;;;;;;;;5022360;28;20508;-60
2024/02/08 02:39:31;;;;;;;0.50;0.50;;;;;;;;;;5022557;28;20133;-60
2024/02/08 02:42:00;;;;;;;0.57;0.57;;;;;;;;;;5007845;28;20257;-62
2024/02/08 02:44:27;;;;;;;0.60;0.60;;;;;;;;;;5007369;28;20416;-59
2024/02/08 02:46:56;;;;;;;0.50;0.50;;;;;;;;;;5007092;28;20528;-61
2024/02/08 02:49:23;;;;;;;0.50;0.50;;;;;;;;;;5005952;28;20058;-61
2024/02/08 02:51:52;;;;;;;0.50;0.50;;;;;;;;;;5022392;28;20056;-59
2024/02/08 02:54:22;;;;;;;0.50;0.50;;;;;;;;;;5005775;28;20049;-61
2024/02/08 02:56:50;;;;;;;0.50;0.50;;;;;;;;;;5005806;28;20128;-60
2024/02/08 02:59:17;;;;;;;0.50;0.50;;;;;;;;;;5007138;28;20068;-60
2024/02/08 03:01:49;;;;;;;0.50;0.50;;;;;;;;;;5006887;28;20410;-60
2024/02/08 03:04:16;;;;;;;0.50;0.50;;;;;;;;;;5006457;28;20524;-59
2024/02/08 03:06:45;;;;;;;0.50;0.50;;;;;;;;;;5006950;28;20252;-59
2024/02/08 03:09:15;;;;;;;0.50;0.50;;;;;;;;;;5007209;28;20056;-61
2024/02/08 03:11:43;;;;;;;0.50;0.50;;;;;;;;;;5021501;28;20053;-61
2024/02/08 03:14:10;;;;;;;0.50;0.50;;;;;;;;;;5007070;28;20049;-60
2024/02/08 03:16:37;;;;;;;0.47;0.47;;;;;;;;;;5006597;28;20062;-59
2024/02/08 03:19:07;;;;;;;0.50;0.50;;;;;;;;;;5020799;28;20081;-59
2024/02/08 03:21:35;;;;;;;0.50;0.50;;;;;;;;;;5006617;28;20112;-61
2024/02/08 03:24:09;;;;;;;0.50;0.50;;;;;;;;;;5021177;28;20459;-59
2024/02/08 03:26:46;;;;;;;0.50;0.50;;;;;;;;;;5006719;28;20053;-58
2024/02/08 03:29:15;;;;;;;0.50;0.50;;;;;;;;;;5006891;28;20474;-59
2024/02/08 03:31:46;;;;;;;0.50;0.50;;;;;;;;;;5006236;28;20103;-61
2024/02/08 03:34:29;;;;;;;0.50;0.50;;;;;;;;;;5006104;28;20106;-60
2024/02/08 03:36:57;;;;;;;0.50;0.50;;;;;;;;;;5021561;28;20591;-61
2024/02/08 03:39:27;;;;;;;0.45;0.45;;;;;;;;;;5007166;28;20133;-59
2024/02/08 03:41:57;;;;;;;0.50;0.50;;;;;;;;;;5006859;28;20100;-59
2024/02/08 03:44:25;;;;;;;0.50;0.50;;;;;;;;;;5021516;28;20081;-61
2024/02/08 03:46:52;;;;;;;0.50;0.50;;;;;;;;;;5006174;28;20512;-59
2024/02/08 03:49:19;;;;;;;0.50;0.50;;;;;;;;;;5006425;28;20130;-61
2024/02/08 03:51:47;;;;;;;0.60;0.60;;;;;;;;;;5005865;28;20550;-59
2024/02/08 03:54:16;;;;;;;0.50;0.50;;;;;;;;;;5006115;28;20095;-60
2024/02/08 03:56:49;;;;;;;0.50;0.50;;;;;;;;;;5021037;28;20049;-61
2024/02/08 03:59:26;;;;;;;0.50;0.50;;;;;;;;;;5006100;28;20136;-59
2024/02/08 04:02:00;;;;;;;0.50;0.50;;;;;;;;;;5004579;28;20046;-61
2024/02/08 04:04:29;;;;;;;0.50;0.50;;;;;;;;;;5005625;28;20058;-59
2024/02/08 04:07:18;;;;;;;0.40;0.40;;;;;;;;;;4844247;28;5001576;-59
2024/02/08 04:09:50;;;;;;;0.50;0.50;;;;;;;;;;5005091;28;20473;-62
2024/02/08 04:56:07;;;;;;;0.40;0.40;;;;;;;;;;5008791;28;20076;-61
2024/02/08 04:58:34;;;;;;;0.50;0.50;;;;;;;;;;5004998;28;20041;-61
2024/02/08 05:01:20;;;;;;;0.40;0.40;;;;;;;;;;5004792;28;20050;-62
2024/02/08 05:03:48;;;;;;;0.40;0.40;;;;;;;;;;5005269;28;20053;-60
2024/02/08 05:06:15;;;;;;;0.43;0.43;;;;;;;;;;5019512;28;20469;-60
2024/02/08 05:08:42;;;;;;;0.50;0.50;;;;;;;;;;5005184;28;20056;-61
2024/02/08 05:11:09;;;;;;;0.40;0.40;;;;;;;;;;5004827;28;20061;-60
2024/02/08 05:13:40;;;;;;;0.40;0.40;;;;;;;;;;5019840;28;20056;-62
2024/02/08 05:16:16;;;;;;;0.50;0.50;;;;;;;;;;5003477;28;20057;-62
2024/02/08 05:18:43;;;;;;;0.50;0.50;;;;;;;;;;5004886;28;20050;-60
2024/02/08 05:21:11;;;;;;;0.50;0.50;;;;;;;;;;5010526;28;20054;-60
2024/02/08 05:23:41;;;;;;;0.50;0.50;;;;;;;;;;5003107;28;20049;-60
2024/02/08 05:26:11;;;;;;;0.50;0.50;;;;;;;;;;5019364;28;20584;-62
2024/02/08 05:28:38;;;;;;;0.50;0.50;;;;;;;;;;5004715;28;20053;-62
2024/02/08 05:31:05;;;;;;;0.50;0.50;;;;;;;;;;5019469;28;20042;-62
2024/02/08 05:33:32;;;;;;;0.40;0.40;;;;;;;;;;5003664;28;20066;-62
2024/02/08 05:36:00;;;;;;;0.50;0.50;;;;;;;;;;5004374;28;20096;-61
2024/02/08 05:38:33;;;;;;;0.43;0.43;;;;;;;;;;5018871;28;20193;-62
2024/02/08 05:41:00;;;;;;;0.40;0.40;;;;;;;;;;5003959;28;20050;-61
2024/02/08 05:43:30;;;;;;;0.47;0.47;;;;;;;;;;5003822;28;20052;-62
2024/02/08 05:45:57;;;;;;;0.43;0.43;;;;;;;;;;5004332;28;20060;-64
2024/02/08 05:48:27;;;;;;;0.40;0.40;;;;;;;;;;5004155;28;20053;-61
2024/02/08 05:50:57;;;;;;;0.40;0.40;;;;;;;;;;5004006;28;20167;-60
2024/02/08 05:53:24;;;;;;;0.50;0.50;;;;;;;;;;5004143;28;20061;-62
2024/02/08 05:55:54;;;;;;;0.50;0.50;;;;;;;;;;5003951;28;20064;-60
2024/02/08 05:58:20;;;;;;;0.40;0.40;;;;;;;;;;5003966;28;20529;-61
2024/02/08 06:00:52;;;;;;;0.40;0.40;;;;;;;;;;5004004;28;20452;-62
2024/02/08 06:03:33;;;;;;;0.50;0.50;;;;;;;;;;5004252;28;20050;-62
2024/02/08 06:06:06;;;;;;;0.47;0.47;;;;;;;;;;5003594;28;20145;-62
2024/02/08 06:08:39;;;;;;;;;;;;;;;;;;5004684;28;20131;-62
2024/02/08 06:11:14;;;;;;;0.50;0.50;;;;;;;;;;5003897;28;20327;-61
2024/02/08 06:13:41;;;;;;;0.40;0.40;;;;;;;;;;5004106;28;20518;-59
2024/02/08 06:16:14;;;;;;;0.50;0.50;;;;;;;;;;5003897;28;20058;-59
2024/02/08 06:18:45;;;;;;;;;;;;;;;;;;5004316;28;20263;-63
2024/02/08 06:21:18;;;;;;;0.47;0.47;;;;;;;;;;5003383;28;19961;-63
2024/02/08 06:23:45;;;;;;;0.50;0.50;;;;;;;;;;5003886;28;20574;-62
2024/02/08 06:28:46;;;;;;;0.50;0.50;;;;;;;;;;5004174;28;20049;-61
2024/02/08 06:31:17;;;;;;;0.50;0.50;;;;;;;;;;5018683;28;20053;-62
2024/02/08 06:36:33;;;;;;;0.50;0.50;;;;;;;;;;5003519;28;20144;-62
2024/02/08 06:39:44;;;;;;;0.50;0.50;;;;;;;;;;5018484;28;20724;-60
2024/02/08 06:41:52;;;;;;;0.50;0.50;;;;;;;;;;5002848;28;20494;-62
2024/02/08 07:39:34;;;;;;;0.80;0.80;;;;;;;;;;5006042;28;20088;-62
2024/02/08 07:42:12;;;;;;;0.80;0.80;;;;;;;;;;5005981;28;20053;-59
2024/02/08 07:44:45;;;;;;;0.80;0.80;;;;;;;;;;5005902;28;20446;-59
2024/02/08 07:47:12;;;;;;;0.80;0.80;;;;;;;;;;5005875;28;20064;-62
2024/02/08 07:49:42;;;;;;;0.90;0.90;;;;;;;;;;5004061;28;20390;-61
2024/02/08 07:52:33;;;;;;;1.00;1.00;;;;;;;;;;5005361;28;20061;-61
2024/02/08 07:55:14;;;;;;;0.90;0.90;;;;;;;;;;5004996;28;20081;-61
2024/02/08 07:58:07;;;;;;;1.00;1.00;;;;;;;;;;5005257;28;20084;-60
2024/02/08 08:03:07;;;;;;;0.90;0.90;;;;;;;;;;5006180;28;20050;-60
2024/02/08 08:05:44;;;;;;;1.00;1.00;;;;;;;;;;5004858;28;20058;-60
2024/02/08 08:08:24;;;;;;;1.00;1.00;;;;;;;;;;5003511;28;20112;-62
2024/02/08 08:11:06;;;;;;;1.00;1.00;;;;;;;;;;5005442;28;20054;-60
2024/02/08 08:19:08;;;;;;;0.90;0.90;;;;;;;;;;5005092;28;20132;-62
2024/02/08 08:22:03;;;;;;;1.10;1.10;;;;;;;;;;5005075;28;20060;-62
2024/02/08 08:24:42;;;;;;;1.00;1.00;;;;;;;;;;5003342;28;20053;-60
2024/02/08 08:27:32;;;;;;;1.00;1.00;;;;;;;;;;5003636;28;20426;-60
2024/02/08 08:29:59;;;;;;;1.10;1.10;;;;;;;;;;5005128;28;20054;-61
2024/02/08 08:38:13;;;;;;;1.20;1.20;;;;;;;;;;5004590;28;20104;-61
2024/02/08 08:40:38;;;;;;;1.10;1.10;;;;;;;;;;5006786;28;20045;-60
2024/02/08 08:43:10;;;;;;;1.30;1.30;;;;;;;;;;5004001;28;20062;-61
2024/02/08 08:45:40;;;;;;;1.17;1.17;;;;;;;;;;5003089;28;20054;-61
2024/02/08 08:48:07;;;;;;;1.30;1.30;;;;;;;;;;5003299;28;20508;-60
2024/02/08 08:50:34;;;;;;;1.20;1.20;;;;;;;;;;5003373;28;20049;-61
2024/02/08 08:53:16;;;;;;;1.17;1.17;;;;;;;;;;5003934;28;20057;-61
2024/02/08 08:55:49;;;;;;;1.15;1.15;;;;;;;;;;5002981;28;20115;-61
2024/02/08 08:58:17;;;;;;;1.20;1.20;;;;;;;;;;5002962;28;20062;-62
2024/02/08 09:00:47;;;;;;;1.40;1.40;;;;;;;;;;5019440;28;20056;-61
2024/02/08 09:03:38;;;;;;;1.30;1.30;;;;;;;;;;5003414;28;20112;-59
2024/02/08 09:06:02;;;;;;;1.30;1.30;;;;;;;;;;5003793;28;20061;-61
2024/02/08 09:08:42;;;;;;;1.30;1.30;;;;;;;;;;5004037;28;20374;-60
2024/02/08 09:11:15;;;;;;;1.30;1.30;;;;;;;;;;5004430;28;20122;-63
2024/02/08 09:13:44;;;;;;;1.40;1.40;;;;;;;;;;5003696;28;20049;-60
2024/02/08 09:21:32;;;;;;;1.30;1.30;;;;;;;;;;5003963;28;20212;-60
2024/02/08 09:23:59;;;;;;;1.25;1.25;;;;;;;;;;5018899;28;20160;-61
2024/02/08 09:26:28;;;;;;;1.30;1.30;;;;;;;;;;5003256;28;20091;-62
2024/02/08 09:29:00;;;;;;;1.30;1.30;;;;;;;;;;5004006;28;20049;-61
2024/02/08 09:31:38;;;;;;;1.20;1.20;;;;;;;;;;5003610;28;20111;-61
2024/02/08 09:34:14;;;;;;;1.10;1.10;;;;;;;;;;5003614;28;20467;-62
2024/02/08 09:36:44;;;;;;;1.23;1.23;;;;;;;;;;5003389;28;20136;-63
2024/02/08 09:39:19;;;;;;;1.15;1.15;;;;;;;;;;5018424;28;20049;-61
2024/02/08 09:41:47;;;;;;;1.17;1.17;;;;;;;;;;5003626;28;20149;-62
2024/02/08 09:44:14;;;;;;;1.30;1.30;;;;;;;;;;5003790;28;20049;-61
2024/02/08 09:49:14;;;;;;;1.20;1.20;;;;;;;;;;5003766;28;20137;-62
2024/02/08 09:51:52;;;;;;;1.40;1.40;;;;;;;;;;5002088;28;20128;-62
2024/02/08 09:54:27;;;;;;;1.30;1.30;;;;;;;;;;5003575;28;20046;-61
2024/02/08 09:56:54;;;;;;;;;;;;;;;;;;5003966;28;20057;-62
2024/02/08 09:59:59;;;;;;;1.45;1.45;;;;;;;;;;5003973;28;19948;-63
2024/02/08 10:02:33;;;;;;;1.50;1.50;;;;;;;;;;5003408;28;20061;-62
2024/02/08 10:05:28;;;;;;;1.45;1.45;;;;;;;;;;5003678;28;20064;-62
2024/02/08 10:08:27;;;;;;;1.50;1.50;;;;;;;;;;5003429;28;20590;-62
2024/02/08 10:11:11;;;;;;;1.50;1.50;;;;;;;;;;5003992;28;20488;-61
2024/02/08 10:14:01;;;;;;;1.60;1.60;;;;;;;;;;5003696;28;20090;-61
2024/02/08 10:16:43;;;;;;;1.60;1.60;;;;;;;;;;5003019;28;20107;-63
2024/02/08 10:19:48;;;;;;;1.67;1.67;;;;;;;;;;5003620;28;20065;-62
2024/02/08 10:22:26;;;;;;;1.50;1.50;;;;;;;;;;5003570;28;20050;-61
2024/02/08 10:27:20;;;;;;;1.55;1.55;;;;;;;;;;5002961;28;20555;-61
2024/02/08 10:29:50;;;;;;;1.50;1.50;;;;;;;;;;5007089;28;20065;-61
2024/02/08 10:32:20;;;;;;;1.70;1.70;;;;;;;;;;5007452;28;20068;-62
2024/02/08 10:34:52;;;;;;;1.50;1.50;;;;;;;;;;5007080;28;20531;-61
2024/02/08 10:42:58;;;;;;;1.35;1.35;;;;;;;;;;5006658;28;20053;-61
2024/02/08 10:45:26;;;;;;;1.60;1.60;;;;;;;;;;4987203;28;20051;-60
2024/02/08 10:47:55;;;;;;;1.65;1.65;;;;;;;;;;4987181;28;20076;-62
2024/02/08 10:50:27;;;;;;;1.80;1.80;;;;;;;;;;5002025;28;20446;-61
2024/02/08 10:53:00;;;;;;;1.67;1.67;;;;;;;;;;4987185;28;20414;-60
2024/02/08 10:55:36;;;;;;;1.70;1.70;;;;;;;;;;4985816;28;20046;-62
2024/02/08 11:03:08;;;;;;;2.17;2.17;;;;;;;;;;4987177;28;20053;-62
2024/02/08 11:05:48;;;;;;;1.98;1.98;;;;;;;;;;5000478;28;20595;-60
2024/02/08 11:08:24;;;;;;;2.20;2.20;;;;;;;;;;5006684;28;20050;-62
2024/02/08 11:10:58;;;;;;;1.70;1.70;;;;;;;;;;5005186;28;20049;-60
2024/02/08 11:13:29;;;;;;;1.75;1.75;;;;;;;;;;5021243;28;20050;-61
2024/02/08 11:16:04;;;;;;;2.00;2.00;;;;;;;;;;5006078;28;20046;-62
2024/02/08 11:18:33;;;;;;;2.00;2.00;;;;;;;;;;5005992;28;20528;-62
2024/02/08 11:21:03;;;;;;;2.00;2.00;;;;;;;;;;5006174;28;20102;-61
2024/02/08 11:23:32;;;;;;;1.85;1.85;;;;;;;;;;5006258;28;20128;-61
2024/02/08 11:26:06;;;;;;;2.17;2.17;;;;;;;;;;5005662;28;20529;-62
2024/02/08 11:28:44;;;;;;;1.90;1.90;;;;;;;;;;5006027;28;20065;-63
2024/02/08 11:31:17;;;;;;;2.10;2.10;;;;;;;;;;5005747;28;20061;-62
2024/02/08 11:33:44;;;;;;;2.33;2.30;;;;;;;;;;5005650;28;20054;-60
2024/02/08 11:36:12;;;;;;;1.80;1.80;;;;;;;;;;5020068;28;20560;-61
2024/02/08 11:38:46;;;;;;;1.70;1.70;;;;;;;;;;5019852;28;20145;-61
2024/02/08 11:41:15;;;;;;;1.67;1.67;;;;;;;;;;5005264;28;20908;-60
2024/02/08 11:43:47;;;;;;;2.20;2.20;;;;;;;;;;5020658;28;20088;-61
2024/02/08 11:46:22;;;;;;;2.13;2.13;;;;;;;;;;5005310;28;20049;-61
2024/02/08 11:48:49;;;;;;;1.98;1.98;;;;;;;;;;5004028;28;20074;-62
2024/02/08 11:51:17;;;;;;;2.08;2.08;;;;;;;;;;5005046;28;20436;-62
2024/02/08 11:53:44;;;;;;;2.15;2.15;;;;;;;;;;5003973;28;20053;-63
2024/02/08 11:56:12;;;;;;;2.10;2.10;;;;;;;;;;5004853;28;20064;-60
2024/02/08 11:58:40;;;;;;;1.90;1.90;;;;;;;;;;5020247;28;20066;-62
2024/02/08 12:01:10;;;;;;;2.05;2.05;;;;;;;;;;5020147;28;20061;-61
2024/02/08 12:03:41;;;;;;;1.73;1.73;;;;;;;;;;5005655;28;20140;-61
2024/02/08 12:06:17;;;;;;;2.22;2.22;;;;;;;;;;5004666;28;20060;-61
2024/02/08 12:08:57;;;;;;;2.10;2.10;;;;;;;;;;5004659;28;20468;-63
2024/02/08 12:11:24;;;;;;;2.10;2.10;;;;;;;;;;5004077;28;20526;-65
2024/02/08 12:13:56;;;;;;;1.98;1.98;;;;;;;;;;5004899;28;20051;-62
2024/02/08 12:16:46;;;;;;;2.08;2.08;;;;;;;;;;5001616;28;20058;-61
2024/02/08 12:19:15;;;;;;;2.00;2.00;;;;;;;;;;5004294;28;20607;-60
2024/02/08 12:21:42;;;;;;;2.15;2.15;;;;;;;;;;5004368;28;20489;-60
2024/02/08 12:24:15;;;;;;;2.15;2.15;;;;;;;;;;5004386;28;20049;-62
2024/02/08 12:26:42;;;;;;;;;;;;;;;;;;4989296;28;20064;-56
2024/02/08 12:29:16;;;;;;;1.98;1.98;;;;;;;;;;5003590;28;19925;-62
2024/02/08 12:31:45;;;;;;;2.15;2.15;;;;;;;;;;5016255;28;20133;-65
2024/02/08 12:34:14;;;;;;;2.20;2.20;;;;;;;;;;4988873;28;20079;-62
2024/02/08 12:36:43;;;;;;;2.30;2.30;;;;;;;;;;5004098;28;20057;-64
2024/02/08 12:39:17;;;;;;;2.20;2.20;;;;;;;;;;5002490;28;20497;-58
2024/02/08 12:41:45;;;;;;;2.03;2.03;;;;;;;;;;5004259;28;20041;-68
2024/02/08 12:44:15;;;;;;;2.50;2.40;;;;;;;;;;5003338;28;20045;-69
2024/02/08 12:46:46;;;;;;;2.20;2.20;;;;;;;;;;5003218;28;20061;-56
2024/02/08 12:49:15;;;;;;;2.10;2.10;;;;;;;;;;5003565;28;20041;-60
2024/02/08 12:51:42;;;;;;;2.10;2.10;;;;;;;;;;5002639;28;20050;-59
2024/02/08 12:54:14;;;;;;;2.13;2.13;;;;;;;;;;5003972;28;20050;-61
2024/02/08 12:56:41;;;;;;;2.60;2.50;;;;;;;;;;5004487;28;20049;-64
2024/02/08 12:59:08;;;;;;;2.30;2.30;;;;;;;;;;5002842;28;20410;-62
2024/02/08 13:01:47;;;;;;;2.10;2.10;;;;;;;;;;5003636;28;20056;-61
2024/02/08 13:04:17;;;;;;;1.98;1.98;;;;;;;;;;5004358;28;20066;-67
2024/02/08 13:06:47;;;;;;;2.30;2.30;;;;;;;;;;5003565;28;20381;-64
2024/02/08 13:09:25;;;;;;;2.50;2.40;;;;;;;;;;5003410;28;20054;-61
2024/02/08 13:12:14;;;;;;;2.30;2.30;;;;;;;;;;5003596;28;20054;-64
2024/02/08 13:14:48;;;;;;;2.20;2.20;;;;;;;;;;5017424;28;20053;-59
2024/02/08 13:17:18;;;;;;;1.98;1.98;;;;;;;;;;5003314;28;20073;-59
2024/02/08 13:19:49;;;;;;;2.07;2.07;;;;;;;;;;4764698;28;5002343;-63
2024/02/08 13:22:20;;;;;;;2.22;2.22;;;;;;;;;;5006753;28;20331;-60
2024/02/08 13:24:51;;;;;;;1.90;1.90;;;;;;;;;;5002641;28;20057;-66
2024/02/08 13:27:28;;;;;;;2.17;2.17;;;;;;;;;;4999339;28;20050;-70
2024/02/08 13:29:56;;;;;;;2.13;2.13;;;;;;;;;;5003819;28;20151;-61
2024/02/08 13:32:27;;;;;;;1.80;1.80;;;;;;;;;;5003312;28;20065;-66
2024/02/08 13:34:54;;;;;;;2.10;2.10;;;;;;;;;;4983902;28;20102;-56
2024/02/08 13:37:22;;;;;;;2.25;2.25;;;;;;;;;;4991221;28;20132;-65
2024/02/08 13:39:50;;;;;;;2.08;2.08;;;;;;;;;;5003524;28;20061;-57
2024/02/08 13:42:20;;;;;;;2.08;2.08;;;;;;;;;;5001373;28;20069;-66
2024/02/08 13:44:50;;;;;;;2.20;2.20;;;;;;;;;;5003009;28;20054;-61
2024/02/08 13:47:17;;;;;;;2.00;2.00;;;;;;;;;;5001280;28;20053;-67
2024/02/08 13:49:50;;;;;;;2.13;2.13;;;;;;;;;;5002237;28;20046;-67
2024/02/08 13:52:17;;;;;;;2.00;2.00;;;;;;;;;;5018594;28;20096;-65
2024/02/08 13:54:48;;;;;;;1.98;1.98;;;;;;;;;;5021807;28;20056;-69
2024/02/08 13:57:15;;;;;;;2.10;2.10;;;;;;;;;;5016307;28;20046;-64
2024/02/08 13:59:50;;;;;;;2.20;2.20;;;;;;;;;;5002654;28;20050;-61
2024/02/08 14:02:21;;;;;;;2.00;2.00;;;;;;;;;;5003487;28;20046;-67
2024/02/08 14:04:55;;;;;;;2.10;2.10;;;;;;;;;;5006313;28;20062;-57
2024/02/08 14:07:31;;;;;;;2.00;2.00;;;;;;;;;;5005480;28;20046;-61
2024/02/08 14:10:00;;;;;;;1.77;1.77;;;;;;;;;;5006227;28;20061;-62
2024/02/08 14:12:28;;;;;;;2.00;2.00;;;;;;;;;;5005877;28;20116;-65
2024/02/08 14:14:57;;;;;;;1.80;1.80;;;;;;;;;;5010080;28;20057;-69
2024/02/08 14:17:34;;;;;;;1.80;1.80;;;;;;;;;;5007668;28;20099;-62
2024/02/08 14:20:04;;;;;;;2.00;2.00;;;;;;;;;;4999076;28;20839;-64
2024/02/08 14:22:38;;;;;;;1.80;1.80;;;;;;;;;;5006162;28;20437;-63
2024/02/08 14:25:23;;;;;;;1.83;1.83;;;;;;;;;;5007009;28;20096;-65
2024/02/08 14:27:54;;;;;;;1.85;1.85;;;;;;;;;;5004324;28;20392;-63
2024/02/08 14:30:21;;;;;;;1.88;1.88;;;;;;;;;;5010116;28;20077;-68
2024/02/08 14:32:50;;;;;;;2.20;2.20;;;;;;;;;;5005017;28;20057;-70
2024/02/08 14:35:17;;;;;;;1.70;1.70;;;;;;;;;;5005001;28;20049;-60
2024/02/08 14:37:46;;;;;;;1.70;1.70;;;;;;;;;;4996599;28;20508;-61
2024/02/08 14:40:13;;;;;;;1.90;1.90;;;;;;;;;;4986562;28;20140;-72
2024/02/08 14:42:43;;;;;;;1.60;1.60;;;;;;;;;;5010936;28;20061;-75
2024/02/08 14:45:12;;;;;;;1.77;1.77;;;;;;;;;;5003980;28;20111;-68
2024/02/08 14:47:41;;;;;;;1.90;1.90;;;;;;;;;;5003375;28;20049;-69
2024/02/08 14:50:48;;;;;;;1.73;1.73;;;;;;;;;;5004196;28;20100;-59
2024/02/08 14:53:00;;;;;;;2.08;2.08;;;;;;;;;;5005124;28;20097;-58
2024/02/08 14:55:29;;;;;;;1.90;1.90;;;;;;;;;;5005385;28;20149;-60
2024/02/08 14:58:02;;;;;;;1.90;1.90;;;;;;;;;;5004142;28;20050;-57
2024/02/08 15:02:55;;;;;;;1.98;1.98;;;;;;;;;;5005719;28;20412;-72
2024/02/08 15:10:59;;;;;;;1.90;1.90;;;;;;;;;;5007392;28;20073;-56
2024/02/08 15:13:26;;;;;;;1.80;1.80;;;;;;;;;;5005245;28;20053;-59
2024/02/08 15:15:55;;;;;;;1.70;1.70;;;;;;;;;;5006252;28;20068;-59
2024/02/08 15:18:38;;;;;;;2.00;2.00;;;;;;;;;;5006650;28;20424;-59
2024/02/08 15:21:06;;;;;;;1.80;1.80;;;;;;;;;;5006760;28;20258;-72
2024/02/08 15:23:55;;;;;;;1.63;1.63;;;;;;;;;;5005968;28;20050;-72
2024/02/08 15:26:24;;;;;;;1.65;1.65;;;;;;;;;;5021322;28;20053;-67
2024/02/08 15:28:56;;;;;;;1.80;1.80;;;;;;;;;;5007254;28;20041;-68
2024/02/08 15:32:10;;;;;;;1.58;1.58;;;;;;;;;;5021190;28;20064;-70
2024/02/08 15:37:13;;;;;;;1.50;1.50;;;;;;;;;;5006531;28;20085;-70
2024/02/08 15:42:17;;;;;;;1.52;1.52;;;;;;;;;;5006525;28;20445;-72
2024/02/08 15:44:52;;;;;;;1.60;1.60;;;;;;;;;;5022595;28;20054;-72
2024/02/08 15:47:20;;;;;;;1.55;1.55;;;;;;;;;;5022183;28;20065;-71
2024/02/08 15:49:54;;;;;;;1.40;1.40;;;;;;;;;;5007626;28;20066;-72
2024/02/08 15:52:22;;;;;;;1.60;1.60;;;;;;;;;;5007370;28;20521;-73
2024/02/08 15:54:57;;;;;;;1.52;1.52;;;;;;;;;;5023102;28;20489;-73
2024/02/08 15:57:32;;;;;;;1.40;1.40;;;;;;;;;;5006635;28;20053;-70
2024/02/08 16:00:00;;;;;;;1.40;1.40;;;;;;;;;;5006869;28;20057;-74
2024/02/08 16:02:27;;;;;;;1.48;1.48;;;;;;;;;;5006453;28;20056;-75
2024/02/08 16:04:54;;;;;;;1.23;1.23;;;;;;;;;;5004310;28;20072;-74
2024/02/08 16:07:27;;;;;;;1.20;1.20;;;;;;;;;;5005523;28;20061;-74
2024/02/08 16:09:57;;;;;;;1.20;1.20;;;;;;;;;;5020593;28;20540;-59
2024/02/08 16:15:00;;;;;;;1.35;1.35;;;;;;;;;;5005750;28;20054;-59
2024/02/08 16:17:36;;;;;;;1.30;1.30;;;;;;;;;;5005424;28;20053;-58
2024/02/08 16:20:23;;;;;;;1.30;1.30;;;;;;;;;;5004251;28;20057;-58
2024/02/08 16:23:02;;;;;;;1.00;1.00;;;;;;;;;;5005887;28;20053;-59
2024/02/08 16:25:44;;;;;;;1.30;1.30;;;;;;;;;;5005245;28;20137;-59
2024/02/08 16:28:20;;;;;;;1.13;1.13;;;;;;;;;;5005633;28;20053;-60
2024/02/08 16:41:56;;;;;;;1.10;1.10;;;;;;;;;;5005117;28;20113;-59
2024/02/08 16:44:37;;;;;;;1.10;1.10;;;;;;;;;;5020209;28;20239;-59
2024/02/08 16:47:27;;;;;;;1.10;1.10;;;;;;;;;;5005398;28;20081;-59
2024/02/08 16:49:58;;;;;;;1.10;1.10;;;;;;;;;;5004990;28;20148;-71
2024/02/08 16:52:28;;;;;;;1.20;1.20;;;;;;;;;;5003599;28;20087;-59
2024/02/08 16:54:58;;;;;;;1.10;1.10;;;;;;;;;;5004993;28;20073;-59
2024/02/08 16:57:31;;;;;;;1.02;1.02;;;;;;;;;;5005438;28;20534;-59
2024/02/08 17:00:35;;;;;;;1.00;1.00;;;;;;;;;;5005342;28;20145;-60
2024/02/08 17:05:48;;;;;;;1.00;1.00;;;;;;;;;;5004950;28;20058;-59
2024/02/08 17:08:20;;;;;;;0.90;0.90;;;;;;;;;;5004697;28;20050;-59
2024/02/08 17:10:55;;;;;;;0.98;0.98;;;;;;;;;;5004959;28;20046;-64
2024/02/08 17:13:30;;;;;;;0.90;0.90;;;;;;;;;;5005129;28;20501;-72
2024/02/08 17:16:24;;;;;;;1.00;1.00;;;;;;;;;;5019053;28;20046;-76
2024/02/08 17:19:46;;;;;;;1.00;1.00;;;;;;;;;;5005222;28;20049;-72
2024/02/08 17:21:44;;;;;;;0.90;0.90;;;;;;;;;;4993805;28;20042;-73
2024/02/08 17:24:22;;;;;;;0.80;0.80;;;;;;;;;;5005125;28;20076;-74
2024/02/08 17:26:59;;;;;;;0.95;0.95;;;;;;;;;;5004697;28;20550;-74
2024/02/08 17:29:35;;;;;;;0.88;0.88;;;;;;;;;;5004686;28;20072;-73
2024/02/08 17:32:07;;;;;;;0.90;0.90;;;;;;;;;;5004739;28;20054;-70
2024/02/08 17:34:37;;;;;;;0.80;0.80;;;;;;;;;;5002852;28;20140;-59
2024/02/08 17:37:04;;;;;;;0.90;0.90;;;;;;;;;;5004726;28;20045;-58
2024/02/08 17:39:39;;;;;;;0.90;0.90;;;;;;;;;;5004502;28;20050;-59
2024/02/08 17:42:08;;;;;;;0.90;0.90;;;;;;;;;;5003280;28;20077;-74
2024/02/08 17:44:39;;;;;;;0.90;0.90;;;;;;;;;;5019550;28;20524;-73
2024/02/08 17:47:08;;;;;;;0.95;0.95;;;;;;;;;;5019165;28;20068;-73
2024/02/08 17:49:35;;;;;;;0.80;0.80;;;;;;;;;;5004709;28;20128;-70
2024/02/08 17:52:03;;;;;;;0.80;0.80;;;;;;;;;;5004758;28;20425;-73
2024/02/08 17:55:15;;;;;;;0.70;0.70;;;;;;;;;;5004610;28;20066;-70
2024/02/08 17:57:24;;;;;;;0.80;0.80;;;;;;;;;;5002530;28;20077;-70
2024/02/08 17:59:58;;;;;;;0.80;0.80;;;;;;;;;;5006555;28;20472;-70